Aktuální podmínky
Jasno



Tlak vzduchu
1012.92 (hPa) - 29.91 (inHG)
Viditelnost

10.0 (km) - 6.2 (miles)
   Teplota
18  °C
64°F
15  °C
Rosný bod
83  %
 Vlhkost
   Rychlost větru
3  km/h
2  kts
2  mph
0.9  m/s
   Směr větru
Bezvětří
S
   Letiště
LKTB
Umístění Brno-Tuřany 26 km (16.16 mi)
Metar :LKTB 180300Z VRB02KT CAVOK 18/15 Q1013 NOSIG
Sun 18th August 05:00 am
   RAW Metar data
Raw METAR je nejběžnějším formátem na světě pro přenos údajů o počasí. Je vysoce standardizován prostřednictvím Mezinárodní organizace pro civilní letectví (ICAO), což umožňuje jeho srozumitelnost na většině světa.
   API Info
Data produkuje
https://www.checkwx.com/weather/LKTB
   © Info
CSS/SVG/PHP scripty vytvořeny weather34.com pro použití v šablonách weather34 © 2015-2019

Informace poskytl průvodce Metar-Wikipedia